Time;durP1;ratioP1;P1;durP2;ratioP2;P2;SDS_P1;SDS_P2;PMS_P1;PMS_P2;Temp;Humidity;BMP_temperature;BMP_pressure;BME280_temperature;BME280_humidity;BME280_pressure;Samples;Min_cycle;Max_cycle;Signal;HPM_P1;HPM_P2
2023/10/09 00:01:17;;;;;;;44.47;22.92;;;;;;;14.06;100.00;101943.09;5028809;28;20076;-73
2023/10/09 00:03:44;;;;;;;48.05;22.13;;;;;;;14.05;100.00;101935.97;5027705;28;20053;-74
2023/10/09 00:06:13;;;;;;;48.38;21.40;;;;;;;13.88;100.00;101929.81;5024209;28;20050;-74
2023/10/09 00:08:44;;;;;;;43.88;22.55;;;;;;;14.04;100.00;101928.91;5026315;28;20125;-73
2023/10/09 00:11:15;;;;;;;38.60;21.20;;;;;;;14.04;100.00;101928.91;5031744;28;20511;-74
2023/10/09 00:13:52;;;;;;;49.03;24.02;;;;;;;13.99;100.00;101924.66;5013970;28;20038;-74
2023/10/09 00:19:14;;;;;;;55.05;26.60;;;;;;;14.12;100.00;101926.63;5038568;28;20053;-74
2023/10/09 00:21:47;;;;;;;61.47;27.70;;;;;;;14.12;100.00;101934.66;5037372;28;20042;-73
2023/10/09 00:24:13;;;;;;;52.63;26.83;;;;;;;14.18;100.00;101927.09;5041064;28;20151;-74
2023/10/09 00:26:47;;;;;;;55.65;26.10;;;;;;;14.16;100.00;101923.66;5038696;28;20056;-74
2023/10/09 00:29:15;;;;;;;49.25;23.80;;;;;;;14.28;100.00;101935.44;5036597;28;20131;-73
2023/10/09 00:31:49;;;;;;;65.43;31.80;;;;;;;14.29;100.00;101937.16;5038300;28;20976;-74
2023/10/09 00:34:21;;;;;;;51.45;26.35;;;;;;;14.38;100.00;101941.13;5030368;28;20037;-75
2023/10/09 00:36:51;;;;;;;63.40;30.30;;;;;;;14.39;100.00;101938.31;5045233;28;20107;-74
2023/10/09 00:39:40;;;;;;;60.15;28.77;;;;;;;14.31;100.00;101932.59;5035335;28;20542;-74
2023/10/09 00:42:06;;;;;;;63.15;31.17;;;;;;;14.23;100.00;101922.31;5035096;28;20243;-74
2023/10/09 00:44:42;;;;;;;61.72;30.23;;;;;;;14.28;100.00;101923.84;5030226;28;21081;-73
2023/10/09 00:47:22;;;;;;;63.88;32.70;;;;;;;14.14;100.00;101914.81;5041466;28;20037;-74
2023/10/09 00:49:49;;;;;;;69.07;31.48;;;;;;;14.06;100.00;101925.19;5032821;28;20050;-74
2023/10/09 00:52:31;;;;;;;62.55;29.65;;;;;;;14.11;100.00;101930.28;5034373;28;20144;-74
2023/10/09 00:55:01;;;;;;;60.85;30.50;;;;;;;14.10;100.00;101917.78;5029883;28;20048;-74
2023/10/09 00:57:28;;;;;;;65.25;31.38;;;;;;;14.08;100.00;101917.88;5027445;28;20044;-73
2023/10/09 01:00:01;;;;;;;65.60;30.95;;;;;;;14.11;100.00;101916.84;5028035;28;20045;-74
2023/10/09 01:02:35;;;;;;;;;;;;;;;14.15;100.00;101916.53;5033235;28;20048;-73
2023/10/09 01:05:11;;;;;;;65.78;31.95;;;;;;;14.21;100.00;101918.00;5023848;28;19928;-73
2023/10/09 01:07:40;;;;;;;57.95;29.67;;;;;;;14.29;100.00;101914.84;5025599;28;20037;-74
2023/10/09 01:10:09;;;;;;;71.25;32.78;;;;;;;14.32;100.00;101918.22;5023140;28;20029;-74
2023/10/09 01:12:42;;;;;;;70.50;30.65;;;;;;;14.34;100.00;101907.38;5033860;28;20061;-74
2023/10/09 01:15:07;;;;;;;64.07;30.33;;;;;;;14.38;100.00;101907.09;5034506;28;20115;-75
2023/10/09 01:17:36;;;;;;;73.88;30.95;;;;;;;14.31;100.00;101902.19;5026233;28;20095;-73
2023/10/09 01:20:05;;;;;;;57.22;30.70;;;;;;;14.41;100.00;101901.53;5021108;28;20048;-74
2023/10/09 01:22:30;;;;;;;62.67;31.35;;;;;;;14.40;100.00;101912.34;5024820;28;20026;-73
2023/10/09 01:24:56;;;;;;;59.42;30.77;;;;;;;14.42;100.00;101903.25;5032781;28;23328;-74
2023/10/09 01:27:24;;;;;;;63.38;31.65;;;;;;;14.36;100.00;101905.47;5031070;28;20798;-74
2023/10/09 01:29:51;;;;;;;77.82;34.20;;;;;;;14.31;100.00;101908.44;5031943;28;20627;-74
2023/10/09 01:32:18;;;;;;;71.95;32.67;;;;;;;14.28;100.00;101905.94;5032116;28;20033;-74
2023/10/09 01:34:48;;;;;;;74.22;32.88;;;;;;;14.22;100.00;101906.31;5029332;28;20045;-75
2023/10/09 01:37:18;;;;;;;75.38;33.53;;;;;;;14.40;100.00;101906.97;5020612;28;20033;-74
2023/10/09 01:39:51;;;;;;;66.72;32.88;;;;;;;14.43;100.00;101901.44;5026061;28;20037;-74
2023/10/09 01:42:45;;;;;;;69.93;33.85;;;;;;;14.43;100.00;101888.88;5026152;28;20567;-74
2023/10/09 01:45:15;;;;;;;71.88;33.25;;;;;;;14.52;100.00;101892.00;5028667;28;20061;-74
2023/10/09 01:47:46;;;;;;;76.93;37.53;;;;;;;14.53;100.00;101899.94;5019191;28;20033;-74
2023/10/09 01:50:19;;;;;;;73.03;33.33;;;;;;;14.59;100.00;101896.00;5021455;28;20038;-73
2023/10/09 01:52:45;;;;;;;72.53;33.65;;;;;;;14.55;100.00;101895.31;5026781;28;20033;-73
2023/10/09 01:55:15;;;;;;;86.95;38.28;;;;;;;14.48;100.00;101904.72;5014670;28;20036;-74
2023/10/09 01:57:44;;;;;;;93.13;42.38;;;;;;;14.49;100.00;101887.66;5021679;28;20037;-73
2023/10/09 02:00:16;;;;;;;84.13;40.38;;;;;;;14.54;100.00;101890.91;5031586;28;20037;-73
2023/10/09 02:02:45;;;;;;;81.63;38.17;;;;;;;14.63;100.00;101897.53;5027245;28;20490;-73
2023/10/09 02:05:12;;;;;;;77.90;35.10;;;;;;;14.71;100.00;101893.41;5033100;28;20171;-74
2023/10/09 02:07:41;;;;;;;80.90;38.38;;;;;;;14.71;100.00;101897.91;5059984;28;20064;-74
2023/10/09 02:10:55;;;;;;;71.15;35.08;;;;;;;14.77;100.00;101887.63;5029736;28;20886;-74
2023/10/09 02:13:11;;;;;;;94.70;45.15;;;;;;;14.67;100.00;101886.50;5027824;28;20527;-74
2023/10/09 02:23:38;;;;;;;94.97;45.97;;;;;;;14.75;100.00;101883.31;5025279;28;20040;-73
2023/10/09 02:26:06;;;;;;;92.28;46.03;;;;;;;14.85;100.00;101875.53;5031209;28;20029;-73
2023/10/09 02:28:32;;;;;;;96.60;44.90;;;;;;;14.90;100.00;101873.41;5029299;28;20136;-74
2023/10/09 02:31:00;;;;;;;75.65;39.53;;;;;;;14.91;100.00;101873.31;5032867;28;20361;-73
2023/10/09 02:33:30;;;;;;;102.93;47.72;;;;;;;14.83;100.00;101870.25;5024300;28;20037;-74
2023/10/09 02:36:04;;;;;;;109.90;48.30;;;;;;;14.85;100.00;101867.47;5014825;28;20041;-73
2023/10/09 02:38:34;;;;;;;107.55;47.35;;;;;;;14.81;100.00;101871.31;5030330;28;20046;-74
2023/10/09 02:43:33;;;;;;;95.40;45.65;;;;;;;14.86;100.00;101864.72;5026963;28;20045;-74
2023/10/09 02:46:14;;;;;;;91.03;47.47;;;;;;;14.80;100.00;101857.03;5031417;28;20033;-74
2023/10/09 02:48:48;;;;;;;100.88;53.80;;;;;;;14.84;100.00;101853.19;5032125;28;20558;-74
2023/10/09 02:51:31;;;;;;;84.80;45.33;;;;;;;14.95;100.00;101845.28;5027720;28;20579;-74
2023/10/09 02:53:59;;;;;;;92.45;48.03;;;;;;;14.95;100.00;101837.22;5015677;28;20041;-73
2023/10/09 02:56:38;;;;;;;92.32;47.80;;;;;;;15.02;100.00;101838.56;5032428;28;20038;-73
2023/10/09 02:59:06;;;;;;;90.07;44.55;;;;;;;15.01;100.00;101841.34;5036278;28;20219;-75
2023/10/09 03:01:37;;;;;;;102.85;51.45;;;;;;;14.99;100.00;101825.31;5024882;28;20043;-73
2023/10/09 03:04:05;;;;;;;93.45;48.55;;;;;;;15.00;100.00;101824.34;5037627;28;21002;-73
2023/10/09 03:06:35;;;;;;;101.72;50.92;;;;;;;15.01;100.00;101822.56;5026334;28;20053;-73
2023/10/09 03:09:09;;;;;;;91.75;51.13;;;;;;;15.05;100.00;101839.31;5032630;28;20069;-73
2023/10/09 03:11:36;;;;;;;94.32;47.25;;;;;;;15.10;100.00;101840.72;5023268;28;20073;-74
2023/10/09 03:14:04;;;;;;;89.45;49.83;;;;;;;15.11;100.00;101839.78;5024610;28;20037;-74
2023/10/09 03:16:30;;;;;;;84.68;45.55;;;;;;;15.12;100.00;101830.75;5032127;28;20057;-74
2023/10/09 03:18:56;;;;;;;105.57;53.30;;;;;;;15.10;100.00;101829.13;5024767;28;20053;-73
2023/10/09 03:21:22;;;;;;;91.50;49.08;;;;;;;15.10;100.00;101823.75;5027505;28;20045;-74
2023/10/09 03:23:51;;;;;;;97.65;46.40;;;;;;;15.16;100.00;101820.63;5024841;28;25095;-74
2023/10/09 03:26:20;;;;;;;91.18;51.00;;;;;;;15.13;100.00;101813.66;5028557;28;20065;-73
2023/10/09 03:28:47;;;;;;;90.40;47.20;;;;;;;15.13;100.00;101805.59;5029762;28;20025;-74
2023/10/09 03:31:13;;;;;;;91.80;47.60;;;;;;;14.95;100.00;101801.44;5033031;28;20048;-73
2023/10/09 03:33:39;;;;;;;86.35;44.97;;;;;;;15.05;100.00;101804.38;5027170;28;20040;-73
2023/10/09 03:36:11;;;;;;;85.55;45.97;;;;;;;15.15;100.00;101811.72;5025407;28;20042;-73
2023/10/09 03:38:38;;;;;;;91.47;47.40;;;;;;;15.16;100.00;101801.81;5022466;28;20037;-73
2023/10/09 03:41:07;;;;;;;83.07;45.20;;;;;;;15.13;100.00;101802.06;5032190;28;20033;-74
2023/10/09 03:43:40;;;;;;;85.57;46.28;;;;;;;15.14;100.00;101806.47;5032591;28;20041;-73
2023/10/09 03:46:20;;;;;;;91.85;45.10;;;;;;;15.14;100.00;101809.16;5028705;28;20033;-74
2023/10/09 03:48:49;;;;;;;84.07;45.33;;;;;;;15.08;100.00;101802.34;5019216;28;20030;-73
2023/10/09 03:51:21;;;;;;;92.40;45.17;;;;;;;15.05;100.00;101802.56;5025153;28;20053;-74
2023/10/09 03:53:52;;;;;;;61.80;34.95;;;;;;;15.13;100.00;101808.28;5037355;28;20039;-73
2023/10/09 03:56:20;;;;;;;85.90;45.33;;;;;;;15.00;100.00;101804.69;5029063;28;20045;-73
2023/10/09 03:58:54;;;;;;;81.05;43.15;;;;;;;15.02;100.00;101803.63;5024806;28;20041;-74
2023/10/09 04:01:37;;;;;;;81.30;42.55;;;;;;;15.16;100.00;101809.88;5025800;28;20041;-74
2023/10/09 04:04:05;;;;;;;78.45;41.63;;;;;;;15.15;100.00;101805.50;5032289;28;20034;-74
2023/10/09 04:06:34;;;;;;;80.13;43.78;;;;;;;15.08;100.00;101796.13;5029248;28;20041;-74
2023/10/09 04:14:49;;;;;;;77.72;40.30;;;;;;;15.06;100.00;101808.78;5032589;28;20057;-73
2023/10/09 04:17:39;;;;;;;75.30;44.65;;;;;;;15.11;100.00;101812.91;5028833;28;20052;-73
2023/10/09 04:23:04;;;;;;;67.35;38.42;;;;;;;15.21;100.00;101850.75;5028250;28;20040;-74
2023/10/09 04:25:40;;;;;;;69.95;41.95;;;;;;;15.23;100.00;101838.09;5029548;28;20032;-74
2023/10/09 04:30:42;;;;;;;72.72;42.08;;;;;;;15.28;100.00;101826.06;5029940;28;20034;-74
2023/10/09 04:39:14;;;;;;;69.40;40.10;;;;;;;15.40;100.00;101831.56;5022731;28;20050;-74
2023/10/09 04:46:44;;;;;;;74.45;39.00;;;;;;;15.40;100.00;101826.19;5026670;28;20038;-74
2023/10/09 04:49:28;;;;;;;72.45;41.33;;;;;;;15.42;100.00;101829.66;5021945;28;20030;-73
2023/10/09 04:52:18;;;;;;;68.80;39.50;;;;;;;15.41;100.00;101830.59;5016181;28;20065;-74
2023/10/09 04:55:14;;;;;;;68.47;39.95;;;;;;;15.40;100.00;101826.19;5032164;28;20029;-74
2023/10/09 04:57:45;;;;;;;71.43;39.00;;;;;;;15.43;100.00;101832.22;5019885;28;20033;-73
2023/10/09 05:11:05;;;;;;;62.95;38.88;;;;;;;15.53;100.00;101845.91;5017501;28;20066;-74
2023/10/09 05:16:13;;;;;;;63.65;35.97;;;;;;;15.56;100.00;101824.16;5013781;28;20038;-73
2023/10/09 05:18:55;;;;;;;56.13;33.90;;;;;;;15.61;100.00;101834.63;5020832;28;20141;-73
2023/10/09 05:24:42;;;;;;;59.10;35.05;;;;;;;15.62;100.00;101839.91;5019865;28;19917;-73
2023/10/09 05:29:19;;;;;;;55.58;34.33;;;;;;;15.60;100.00;101836.44;5024471;28;20029;-72
2023/10/09 05:37:25;;;;;;;63.00;37.22;;;;;;;15.61;100.00;101829.22;5025772;28;20040;-74
2023/10/09 06:06:44;;;;;;;54.85;32.45;;;;;;;15.74;100.00;101887.50;5038905;28;20060;-74
2023/10/09 06:19:27;;;;;;;66.70;38.65;;;;;;;15.73;100.00;101914.50;5031239;28;20246;-75
2023/10/09 06:24:41;;;;;;;64.13;36.95;;;;;;;15.79;100.00;101909.56;5035371;28;20104;-73
2023/10/09 06:29:38;;;;;;;66.07;39.75;;;;;;;15.86;100.00;101907.28;5034298;28;20037;-74
2023/10/09 06:35:14;;;;;;;63.00;37.35;;;;;;;15.90;100.00;101906.13;5037764;28;20986;-74
2023/10/09 06:38:22;;;;;;;69.53;36.70;;;;;;;15.83;100.00;101896.75;5038721;28;20032;-74
2023/10/09 06:43:15;;;;;;;63.95;36.47;;;;;;;15.88;100.00;101856.97;5026629;28;20140;-74
2023/10/09 06:45:54;;;;;;;64.88;36.30;;;;;;;15.99;100.00;101858.91;5030881;28;20029;-74
2023/10/09 06:59:43;;;;;;;62.85;36.85;;;;;;;16.11;100.00;101886.75;5027404;28;20046;-73
2023/10/09 07:06:59;;;;;;;65.65;40.05;;;;;;;16.03;100.00;101828.97;5029474;28;21189;-74
2023/10/09 07:09:41;;;;;;;66.85;37.72;;;;;;;16.09;100.00;101876.13;5027779;28;20852;-74
2023/10/09 07:12:09;;;;;;;68.60;36.05;;;;;;;16.15;100.00;101873.00;5032418;28;20061;-74
2023/10/09 07:24:49;;;;;;;70.22;36.80;;;;;;;16.42;100.00;101882.78;5034338;28;20033;-73
2023/10/09 07:27:43;;;;;;;72.97;37.30;;;;;;;16.45;100.00;101878.03;5021646;28;20152;-74
2023/10/09 07:30:35;;;;;;;59.53;33.45;;;;;;;16.54;100.00;101884.59;5026546;28;20112;-74
2023/10/09 07:32:54;;;;;;;69.78;36.28;;;;;;;16.48;100.00;101888.59;5032816;28;20037;-74
2023/10/09 07:38:05;;;;;;;55.58;33.97;;;;;;;16.64;100.00;101882.97;5035104;28;20120;-74
2023/10/09 07:40:51;;;;;;;71.85;36.33;;;;;;;16.55;100.00;101892.56;5024486;28;20145;-74
2023/10/09 07:43:17;;;;;;;58.47;33.17;;;;;;;16.66;100.00;101891.78;5031557;28;20133;-74
2023/10/09 07:48:38;;;;;;;69.38;33.95;;;;;;;16.76;100.00;101887.47;5026292;28;20039;-74
2023/10/09 07:51:11;;;;;;;49.25;31.55;;;;;;;16.80;100.00;101888.13;5030150;28;21744;-74
2023/10/09 07:53:44;;;;;;;58.38;32.45;;;;;;;16.81;100.00;101882.63;5028948;28;20041;-74
2023/10/09 07:56:19;;;;;;;59.55;31.58;;;;;;;16.82;100.00;101859.25;5023511;28;20038;-74
2023/10/09 07:58:47;;;;;;;58.58;31.95;;;;;;;16.82;100.00;101862.81;5028782;28;20080;-74
2023/10/09 08:01:16;;;;;;;58.35;33.35;;;;;;;16.97;100.00;101854.56;5025774;28;20030;-74
2023/10/09 08:04:01;;;;;;;45.90;27.83;;;;;;;17.04;100.00;101854.00;5032312;28;20033;-74
2023/10/09 08:06:39;;;;;;;50.55;32.58;;;;;;;17.02;100.00;101828.13;5029006;28;20991;-74
2023/10/09 08:12:13;;;;;;;53.83;31.20;;;;;;;17.02;100.00;101847.88;5026613;28;20988;-73
2023/10/09 08:17:15;;;;;;;41.10;26.27;;;;;;;17.24;100.00;101849.81;5028931;28;20033;-75
2023/10/09 08:19:54;;;;;;;57.75;30.70;;;;;;;17.25;100.00;101848.81;5032750;28;20045;-73
2023/10/09 08:24:56;;;;;;;53.85;29.92;;;;;;;17.51;100.00;101835.19;5029685;28;20116;-74
2023/10/09 08:28:39;;;;;;;50.35;29.15;;;;;;;17.63;100.00;101825.31;5029258;28;20080;-75
2023/10/09 08:33:02;;;;;;;59.80;31.97;;;;;;;17.92;100.00;101820.34;5026611;28;20444;-74
2023/10/09 08:35:47;;;;;;;52.15;27.52;;;;;;;17.97;100.00;101824.44;5029547;28;20144;-74
2023/10/09 08:38:14;;;;;;;46.45;28.48;;;;;;;18.03;100.00;101832.03;5019618;28;20245;-74
2023/10/09 08:40:43;;;;;;;47.38;26.42;;;;;;;17.93;100.00;101844.53;5032229;28;20140;-74
2023/10/09 08:43:09;;;;;;;53.35;29.55;;;;;;;17.91;100.00;101842.91;5026491;28;20033;-73
2023/10/09 08:45:39;;;;;;;47.08;28.33;;;;;;;17.98;100.00;101836.09;5023747;28;20137;-74
2023/10/09 08:48:07;;;;;;;47.35;25.65;;;;;;;18.08;100.00;101834.38;5027395;28;20037;-74
2023/10/09 08:50:34;;;;;;;46.97;27.00;;;;;;;17.95;100.00;101841.72;5024418;28;20076;-74
2023/10/09 08:53:01;;;;;;;48.85;26.73;;;;;;;18.10;100.00;101827.00;5022086;28;20156;-74
2023/10/09 08:55:26;;;;;;;42.72;26.75;;;;;;;18.09;100.00;101825.28;5023903;28;20156;-74
2023/10/09 08:57:52;;;;;;;53.28;28.00;;;;;;;18.21;100.00;101829.69;5028336;28;20169;-75
2023/10/09 09:00:23;;;;;;;41.58;26.85;;;;;;;18.26;100.00;101832.03;5030569;28;20041;-73
2023/10/09 09:02:52;;;;;;;50.83;26.98;;;;;;;18.42;100.00;101835.22;5030488;28;20425;-74
2023/10/09 09:05:21;;;;;;;49.13;26.38;;;;;;;18.43;100.00;101873.91;5020179;28;21072;-74
2023/10/09 09:07:48;;;;;;;45.42;25.42;;;;;;;18.57;100.00;101885.28;5028425;28;21104;-75
2023/10/09 09:10:31;;;;;;;40.63;25.30;;;;;;;18.63;100.00;101886.66;5025411;28;20053;-74
2023/10/09 09:13:03;;;;;;;43.63;27.48;;;;;;;18.71;100.00;101892.31;5025586;28;20033;-73
2023/10/09 09:15:29;;;;;;;;;;;;;;;18.74;100.00;101883.13;5028909;28;20045;-74
2023/10/09 09:18:17;;;;;;;43.17;26.33;;;;;;;18.83;100.00;101883.25;5058418;28;19921;-74
2023/10/09 09:20:46;;;;;;;45.85;27.73;;;;;;;18.86;100.00;101882.97;5025853;28;20041;-74
2023/10/09 09:23:12;;;;;;;52.00;26.30;;;;;;;18.84;100.00;101881.41;5026456;28;20038;-74
2023/10/09 09:25:59;;;;;;;43.13;26.65;;;;;;;18.81;100.00;101887.03;5028327;28;20096;-74
2023/10/09 09:28:26;;;;;;;50.75;27.73;;;;;;;18.77;100.00;101894.53;5025678;28;20033;-73
2023/10/09 09:30:54;;;;;;;51.63;27.40;;;;;;;18.89;100.00;101885.44;5018319;28;20037;-74
2023/10/09 09:33:26;;;;;;;45.22;28.52;;;;;;;19.02;100.00;101889.81;5032162;28;20033;-74
2023/10/09 09:35:58;;;;;;;44.70;24.95;;;;;;;19.00;100.00;101891.81;5033812;28;20053;-74
2023/10/09 09:38:27;;;;;;;44.17;24.13;;;;;;;19.09;100.00;101893.75;5025469;28;20038;-74
2023/10/09 09:40:56;;;;;;;54.30;24.88;;;;;;;19.35;100.00;101884.31;5030477;28;20087;-73
2023/10/09 09:43:22;;;;;;;43.30;24.70;;;;;;;19.35;100.00;101892.44;5032964;28;20036;-73
2023/10/09 09:45:50;;;;;;;42.15;24.63;;;;;;;19.47;100.00;101886.97;5032377;28;20049;-74
2023/10/09 09:48:19;;;;;;;43.53;22.70;;;;;;;19.52;100.00;101882.03;5029761;28;20145;-74
2023/10/09 09:50:46;;;;;;;43.05;21.98;;;;;;;19.66;100.00;101893.44;5035326;28;20033;-74
2023/10/09 09:53:18;;;;;;;40.15;23.38;;;;;;;19.69;100.00;101897.75;5027033;28;20033;-74
2023/10/09 09:55:57;;;;;;;42.50;22.13;;;;;;;19.80;100.00;101900.38;5025529;28;20136;-74
2023/10/09 09:58:32;;;;;;;40.13;21.88;;;;;;;19.70;100.00;101894.03;5032197;28;20184;-74
2023/10/09 10:01:16;;;;;;;43.00;22.15;;;;;;;19.76;100.00;101903.47;5024827;28;20044;-73
2023/10/09 10:03:47;;;;;;;31.55;20.25;;;;;;;19.78;100.00;101902.38;5031785;28;20581;-74
2023/10/09 10:06:14;;;;;;;37.88;22.15;;;;;;;19.75;100.00;101899.06;5032894;28;20068;-75
2023/10/09 10:08:41;;;;;;;42.22;22.08;;;;;;;19.66;100.00;101898.00;5029112;28;20191;-73
2023/10/09 10:11:13;;;;;;;40.15;22.38;;;;;;;19.83;100.00;101883.00;5034291;28;20036;-73
2023/10/09 10:13:42;;;;;;;;;;;;;;;19.74;100.00;101873.00;5028886;28;20072;-74
2023/10/09 10:16:20;;;;;;;37.35;21.20;;;;;;;19.65;100.00;101861.09;5026797;28;19928;-73
2023/10/09 10:19:21;;;;;;;38.58;20.67;;;;;;;19.70;100.00;101879.66;5027875;28;20128;-74
2023/10/09 10:21:52;;;;;;;37.97;21.52;;;;;;;19.49;100.00;101883.16;5026155;28;20049;-74
2023/10/09 10:24:51;;;;;;;40.43;21.63;;;;;;;19.64;100.00;101875.63;5028139;28;20060;-74
2023/10/09 10:27:26;;;;;;;40.22;20.88;;;;;;;19.55;100.00;101890.75;5029528;28;20064;-74
2023/10/09 10:30:10;;;;;;;38.90;20.63;;;;;;;19.70;100.00;101893.19;5021636;28;20133;-73
2023/10/09 10:32:51;;;;;;;41.33;22.10;;;;;;;19.78;100.00;101901.50;5030112;28;20041;-75
2023/10/09 10:35:25;;;;;;;40.33;21.88;;;;;;;19.79;100.00;101895.13;5022064;28;20145;-73
2023/10/09 10:38:11;;;;;;;37.42;21.92;;;;;;;19.87;100.00;101888.03;5032915;28;20044;-75
2023/10/09 10:40:50;;;;;;;40.33;22.40;;;;;;;19.78;100.00;101901.50;5031669;28;20049;-74
2023/10/09 10:43:31;;;;;;;42.33;22.02;;;;;;;19.82;100.00;101890.28;5056374;28;20443;-74
2023/10/09 10:51:39;;;;;;;34.75;19.80;;;;;;;20.25;100.00;101889.28;5018464;28;20030;-74
2023/10/09 10:56:52;;;;;;;33.03;19.50;;;;;;;20.54;100.00;101891.31;5029267;28;20045;-73
2023/10/09 10:59:26;;;;;;;34.58;19.10;;;;;;;20.57;100.00;101889.16;5027854;28;20052;-73
2023/10/09 11:04:44;;;;;;;36.55;18.33;;;;;;;20.94;100.00;101886.72;5024492;28;20079;-74
2023/10/09 11:07:12;;;;;;;30.90;17.20;;;;;;;21.14;100.00;101886.75;5024532;28;20091;-74
2023/10/09 11:15:45;;;;;;;32.47;15.75;;;;;;;21.19;100.00;101865.50;5043777;28;20065;-74
2023/10/09 11:18:25;;;;;;;31.13;15.60;;;;;;;21.07;100.00;101869.31;5033243;28;20154;-75
2023/10/09 11:21:31;;;;;;;29.52;15.35;;;;;;;21.01;100.00;101876.16;5024964;28;20045;-74
2023/10/09 11:24:27;;;;;;;26.90;15.50;;;;;;;21.06;100.00;101873.88;5022488;28;20076;-74
2023/10/09 11:26:40;;;;;;;31.02;14.43;;;;;;;21.06;100.00;101870.31;5025220;28;20096;-74
2023/10/09 11:32:09;;;;;;;36.10;15.35;;;;;;;21.13;100.00;101860.59;5025525;28;20863;-74
2023/10/09 11:34:36;;;;;;;30.23;14.43;;;;;;;21.11;100.00;101858.03;5022325;28;20028;-74
2023/10/09 11:37:04;;;;;;;25.15;14.25;;;;;;;21.21;100.00;101864.34;5025225;28;20099;-75
2023/10/09 11:39:35;;;;;;;22.00;13.27;;;;;;;21.19;100.00;101863.63;5023962;28;20123;-74
2023/10/09 11:42:14;;;;;;;23.52;13.77;;;;;;;21.32;100.00;101863.38;5029080;28;20048;-75
2023/10/09 11:44:54;;;;;;;27.00;14.43;;;;;;;21.16;100.00;101865.75;5032568;28;20049;-74
2023/10/09 11:50:17;;;;;;;25.50;14.35;;;;;;;21.84;100.00;101865.75;5034304;28;20036;-74
2023/10/09 11:55:48;;;;;;;24.08;12.98;;;;;;;21.92;100.00;101866.75;5023589;28;20064;-75
2023/10/09 11:58:22;;;;;;;27.30;12.60;;;;;;;21.83;100.00;101869.47;5028356;28;20116;-74
2023/10/09 12:00:51;;;;;;;27.35;12.85;;;;;;;22.06;100.00;101870.88;5035994;28;20131;-74
2023/10/09 12:03:17;;;;;;;21.92;11.68;;;;;;;22.23;100.00;101861.97;5031243;28;20049;-74
2023/10/09 12:05:44;;;;;;;24.33;11.88;;;;;;;22.26;100.00;101868.13;5025323;28;20160;-74
2023/10/09 12:08:10;;;;;;;25.80;11.80;;;;;;;22.29;100.00;101874.16;5031616;28;20957;-74
2023/10/09 12:10:38;;;;;;;22.85;10.60;;;;;;;22.57;100.00;101874.16;5031759;28;20129;-75
2023/10/09 12:13:05;;;;;;;26.30;12.20;;;;;;;22.42;100.00;101871.94;5029111;28;20041;-74
2023/10/09 12:15:38;;;;;;;25.60;11.10;;;;;;;22.39;100.00;101874.97;5024537;28;20044;-75
2023/10/09 12:18:09;;;;;;;24.58;11.07;;;;;;;22.52;100.00;101871.88;5029190;28;20051;-74
2023/10/09 12:20:35;;;;;;;24.93;12.13;;;;;;;22.24;100.00;101876.44;5021313;28;20114;-74
2023/10/09 12:23:05;;;;;;;22.92;11.30;;;;;;;22.08;100.00;101862.56;5021725;28;20033;-75
2023/10/09 12:25:35;;;;;;;23.02;11.32;;;;;;;22.06;100.00;101867.31;5028888;28;20088;-74
2023/10/09 12:28:02;;;;;;;20.90;10.98;;;;;;;22.10;100.00;101860.59;5027687;28;20148;-74
2023/10/09 12:30:31;;;;;;;23.83;11.43;;;;;;;22.06;100.00;101853.72;5029801;28;20168;-75
2023/10/09 12:32:57;;;;;;;23.05;10.02;;;;;;;22.02;100.00;101855.00;5029172;28;20066;-74
2023/10/09 12:35:27;;;;;;;25.20;10.85;;;;;;;21.90;100.00;101847.03;5022388;28;20080;-75
2023/10/09 12:37:56;;;;;;;23.60;9.40;;;;;;;21.96;100.00;101848.31;5025984;28;20043;-75
2023/10/09 12:40:29;;;;;;;18.05;9.98;;;;;;;22.09;100.00;101848.88;5027865;28;20038;-73
2023/10/09 12:42:55;;;;;;;22.80;10.90;;;;;;;22.01;100.00;101839.72;5026769;28;20041;-74
2023/10/09 12:45:29;;;;;;;22.50;10.38;;;;;;;21.97;100.00;101844.59;5035272;28;20040;-74
2023/10/09 12:48:03;;;;;;;23.40;10.45;;;;;;;21.89;100.00;101842.63;5035683;28;20867;-74
2023/10/09 12:50:33;;;;;;;24.95;11.25;;;;;;;21.93;100.00;101849.44;5062824;28;21095;-74
2023/10/09 12:53:02;;;;;;;20.67;10.20;;;;;;;21.85;100.00;101843.06;5035070;28;20037;-74
2023/10/09 12:55:34;;;;;;;24.20;10.48;;;;;;;21.75;100.00;101847.66;5035351;28;20116;-74
2023/10/09 12:58:06;;;;;;;19.20;9.70;;;;;;;21.69;100.00;101840.94;5036690;28;20791;-73
2023/10/09 13:00:32;;;;;;;15.95;9.38;;;;;;;21.74;100.00;101841.38;5029950;28;20061;-74
2023/10/09 13:03:02;;;;;;;20.17;10.00;;;;;;;21.64;100.00;101846.81;5029219;28;20048;-73
2023/10/09 13:05:28;;;;;;;19.98;9.57;;;;;;;21.68;100.00;101845.50;5039079;28;20053;-72
2023/10/09 13:07:56;;;;;;;18.20;9.65;;;;;;;21.60;100.00;101849.97;5025068;28;20037;-74
2023/10/09 13:10:23;;;;;;;22.05;9.98;;;;;;;21.68;100.00;101847.34;5026276;28;20052;-74
2023/10/09 13:12:55;;;;;;;23.60;9.50;;;;;;;21.59;100.00;101850.97;5029650;28;20068;-73
2023/10/09 13:15:21;;;;;;;23.43;9.93;;;;;;;21.55;100.00;101853.09;5026242;28;20147;-74
2023/10/09 13:17:47;;;;;;;18.45;9.70;;;;;;;21.46;100.00;101851.25;5029071;28;20430;-73
2023/10/09 13:20:12;;;;;;;18.67;10.40;;;;;;;21.52;100.00;101856.09;5023594;28;21258;-73
2023/10/09 13:22:47;;;;;;;23.40;9.82;;;;;;;21.35;100.00;101857.69;5026977;28;20050;-73
2023/10/09 13:25:16;;;;;;;20.35;9.75;;;;;;;21.26;100.00;101865.78;5034597;28;20893;-73
2023/10/09 13:27:50;;;;;;;25.83;9.57;;;;;;;21.19;100.00;101862.78;5024838;28;20108;-73
2023/10/09 13:30:23;;;;;;;18.55;9.00;;;;;;;21.18;100.00;101867.31;5022932;28;20042;-73
2023/10/09 13:32:49;;;;;;;26.55;10.05;;;;;;;21.16;100.00;101869.34;5029954;28;20037;-73
2023/10/09 13:35:19;;;;;;;19.23;8.70;;;;;;;21.05;100.00;101868.63;5027477;28;20570;-73
2023/10/09 13:37:53;;;;;;;21.65;9.38;;;;;;;21.05;100.00;101857.75;5030698;28;20555;-73
2023/10/09 13:40:26;;;;;;;20.73;8.45;;;;;;;20.99;100.00;101869.19;5029263;28;20233;-74
2023/10/09 13:43:01;;;;;;;19.42;8.75;;;;;;;20.98;100.00;101860.16;5022478;28;20033;-73
2023/10/09 13:45:27;;;;;;;20.85;8.77;;;;;;;20.85;100.00;101867.72;5028212;28;20036;-73
2023/10/09 13:48:02;;;;;;;21.63;9.65;;;;;;;20.69;100.00;101860.97;5027822;28;20047;-74
2023/10/09 13:50:32;;;;;;;19.77;9.23;;;;;;;20.72;100.00;101867.09;5021963;28;20080;-73
2023/10/09 13:52:57;;;;;;;22.00;9.73;;;;;;;20.68;100.00;101870.09;5023806;28;20037;-74
2023/10/09 13:55:29;;;;;;;18.55;8.70;;;;;;;20.62;100.00;101865.22;5046850;28;20044;-74
2023/10/09 13:57:57;;;;;;;15.20;8.45;;;;;;;20.73;100.00;101880.50;5026796;28;20575;-73
2023/10/09 14:00:42;;;;;;;22.85;10.10;;;;;;;20.82;100.00;101865.28;5022968;28;20057;-73
2023/10/09 14:03:14;;;;;;;28.48;10.38;;;;;;;20.80;100.00;101869.97;5026194;28;20917;-74
2023/10/09 14:05:54;;;;;;;20.58;10.27;;;;;;;20.76;100.00;101865.81;5025697;28;20042;-74
2023/10/09 14:08:23;;;;;;;20.58;10.45;;;;;;;20.81;100.00;101867.13;5026043;28;20048;-73
2023/10/09 14:10:49;;;;;;;20.98;9.82;;;;;;;20.70;100.00;101864.53;5030705;28;20045;-73
2023/10/09 14:13:25;;;;;;;17.27;8.88;;;;;;;20.75;100.00;101862.25;5019351;28;20052;-74
2023/10/09 14:15:54;;;;;;;20.80;10.15;;;;;;;20.70;100.00;101864.53;5024014;28;20040;-73
2023/10/09 14:18:20;;;;;;;19.10;9.32;;;;;;;20.67;100.00;101862.09;5028223;28;20041;-74
2023/10/09 14:20:46;;;;;;;18.85;9.55;;;;;;;20.71;100.00;101862.69;5027739;28;20063;-73